sensor_id;sensor_type;location;lat;lon;timestamp;pressure;altitude;pressure_sealevel;temperature;humidity
82870;BME280;72645;47.136;15.420;2023-12-20T00:01:39;96805.31;;;0.44;68.38
82870;BME280;72645;47.136;15.420;2023-12-20T00:04:10;96802.27;;;0.36;68.51
82870;BME280;72645;47.136;15.420;2023-12-20T00:06:41;96797.98;;;0.32;68.63
82870;BME280;72645;47.136;15.420;2023-12-20T00:09:12;96792.20;;;0.31;68.70
82870;BME280;72645;47.136;15.420;2023-12-20T00:11:43;96787.91;;;0.34;68.74
82870;BME280;72645;47.136;15.420;2023-12-20T00:14:14;96782.80;;;0.36;68.86
82870;BME280;72645;47.136;15.420;2023-12-20T00:16:45;96782.59;;;0.34;68.81
82870;BME280;72645;47.136;15.420;2023-12-20T00:19:16;96780.05;;;0.33;68.79
82870;BME280;72645;47.136;15.420;2023-12-20T00:21:47;96775.25;;;0.29;68.77
82870;BME280;72645;47.136;15.420;2023-12-20T00:24:18;96770.44;;;0.22;68.85
82870;BME280;72645;47.136;15.420;2023-12-20T00:26:50;96761.48;;;0.19;68.92
82870;BME280;72645;47.136;15.420;2023-12-20T00:29:21;96755.05;;;0.20;69.15
82870;BME280;72645;47.136;15.420;2023-12-20T00:31:52;96754.80;;;0.22;69.25
82870;BME280;72645;47.136;15.420;2023-12-20T00:34:23;96750.40;;;0.20;69.19
82870;BME280;72645;47.136;15.420;2023-12-20T00:36:54;96745.98;;;0.16;69.22
82870;BME280;72645;47.136;15.420;2023-12-20T00:39:25;96747.53;;;0.16;69.34
82870;BME280;72645;47.136;15.420;2023-12-20T00:41:56;96744.19;;;0.17;69.30
82870;BME280;72645;47.136;15.420;2023-12-20T00:44:27;96738.35;;;0.14;69.10
82870;BME280;72645;47.136;15.420;2023-12-20T00:46:59;96732.90;;;0.06;69.04
82870;BME280;72645;47.136;15.420;2023-12-20T00:49:30;96726.98;;;0.00;69.19
82870;BME280;72645;47.136;15.420;2023-12-20T00:52:01;96721.04;;;-0.04;69.24
82870;BME280;72645;47.136;15.420;2023-12-20T00:54:32;96717.00;;;-0.06;69.58
82870;BME280;72645;47.136;15.420;2023-12-20T00:57:03;96711.41;;;-0.05;69.35
82870;BME280;72645;47.136;15.420;2023-12-20T00:59:34;96709.45;;;-0.00;69.43
82870;BME280;72645;47.136;15.420;2023-12-20T01:02:05;96708.56;;;0.07;69.57
82870;BME280;72645;47.136;15.420;2023-12-20T01:04:36;96709.55;;;0.15;69.32
82870;BME280;72645;47.136;15.420;2023-12-20T01:07:07;96708.12;;;0.16;69.22
82870;BME280;72645;47.136;15.420;2023-12-20T01:09:38;96703.20;;;0.04;69.12
82870;BME280;72645;47.136;15.420;2023-12-20T01:12:10;96701.98;;;-0.05;69.32
82870;BME280;72645;47.136;15.420;2023-12-20T01:14:41;96707.04;;;-0.07;69.44
82870;BME280;72645;47.136;15.420;2023-12-20T01:17:11;96706.40;;;-0.08;69.31
82870;BME280;72645;47.136;15.420;2023-12-20T01:19:42;96702.06;;;-0.10;69.57
82870;BME280;72645;47.136;15.420;2023-12-20T01:22:14;96700.70;;;-0.10;69.63
82870;BME280;72645;47.136;15.420;2023-12-20T01:24:45;96695.76;;;-0.08;69.70
82870;BME280;72645;47.136;15.420;2023-12-20T01:27:16;96701.27;;;-0.05;69.90
82870;BME280;72645;47.136;15.420;2023-12-20T01:29:47;96696.60;;;-0.05;69.78
82870;BME280;72645;47.136;15.420;2023-12-20T01:32:18;96697.95;;;-0.04;69.96
82870;BME280;72645;47.136;15.420;2023-12-20T01:34:49;96696.90;;;-0.10;69.55
82870;BME280;72645;47.136;15.420;2023-12-20T01:37:20;96699.77;;;-0.22;69.58
82870;BME280;72645;47.136;15.420;2023-12-20T01:39:53;96692.65;;;-0.31;69.72
82870;BME280;72645;47.136;15.420;2023-12-20T01:42:24;96691.30;;;-0.41;70.25
82870;BME280;72645;47.136;15.420;2023-12-20T01:44:55;96685.64;;;-0.39;70.17
82870;BME280;72645;47.136;15.420;2023-12-20T01:47:26;96686.39;;;-0.33;69.93
82870;BME280;72645;47.136;15.420;2023-12-20T01:49:57;96682.38;;;-0.22;70.00
82870;BME280;72645;47.136;15.420;2023-12-20T01:52:29;96678.11;;;-0.09;70.07
82870;BME280;72645;47.136;15.420;2023-12-20T01:55:00;96671.45;;;-0.07;70.04
82870;BME280;72645;47.136;15.420;2023-12-20T01:57:34;96666.96;;;-0.13;69.78
82870;BME280;72645;47.136;15.420;2023-12-20T02:00:06;96664.66;;;-0.19;69.81
82870;BME280;72645;47.136;15.420;2023-12-20T02:02:40;96661.75;;;-0.25;69.95
82870;BME280;72645;47.136;15.420;2023-12-20T02:05:11;96659.02;;;-0.32;70.04
82870;BME280;72645;47.136;15.420;2023-12-20T02:07:43;96658.83;;;-0.36;70.12
82870;BME280;72645;47.136;15.420;2023-12-20T02:10:14;96651.70;;;-0.34;70.17
82870;BME280;72645;47.136;15.420;2023-12-20T02:12:47;96650.35;;;-0.31;70.14
82870;BME280;72645;47.136;15.420;2023-12-20T02:15:18;96647.34;;;-0.26;70.23
82870;BME280;72645;47.136;15.420;2023-12-20T02:17:50;96639.84;;;-0.24;70.40
82870;BME280;72645;47.136;15.420;2023-12-20T02:20:21;96637.75;;;-0.30;70.20
82870;BME280;72645;47.136;15.420;2023-12-20T02:22:52;96634.88;;;-0.45;70.24
82870;BME280;72645;47.136;15.420;2023-12-20T02:25:23;96630.38;;;-0.47;70.32
82870;BME280;72645;47.136;15.420;2023-12-20T02:27:55;96627.58;;;-0.43;70.19
82870;BME280;72645;47.136;15.420;2023-12-20T02:30:26;96620.02;;;-0.33;70.14
82870;BME280;72645;47.136;15.420;2023-12-20T02:32:57;96615.33;;;-0.26;69.94
82870;BME280;72645;47.136;15.420;2023-12-20T02:35:30;96608.13;;;-0.26;70.43
82870;BME280;72645;47.136;15.420;2023-12-20T02:37:59;96609.09;;;-0.35;70.18
82870;BME280;72645;47.136;15.420;2023-12-20T02:40:30;96602.39;;;-0.35;70.08
82870;BME280;72645;47.136;15.420;2023-12-20T02:43:01;96596.63;;;-0.30;70.09
82870;BME280;72645;47.136;15.420;2023-12-20T02:45:32;96597.48;;;-0.23;70.35
82870;BME280;72645;47.136;15.420;2023-12-20T02:48:03;96588.38;;;-0.20;69.87
82870;BME280;72645;47.136;15.420;2023-12-20T02:50:34;96585.90;;;-0.26;70.07
82870;BME280;72645;47.136;15.420;2023-12-20T02:53:06;96580.82;;;-0.33;70.37
82870;BME280;72645;47.136;15.420;2023-12-20T02:55:37;96578.76;;;-0.37;70.35
82870;BME280;72645;47.136;15.420;2023-12-20T02:58:08;96574.71;;;-0.38;70.19
82870;BME280;72645;47.136;15.420;2023-12-20T03:00:39;96572.60;;;-0.41;70.12
82870;BME280;72645;47.136;15.420;2023-12-20T03:03:10;96569.29;;;-0.46;70.15
82870;BME280;72645;47.136;15.420;2023-12-20T03:05:41;96564.80;;;-0.53;70.41
82870;BME280;72645;47.136;15.420;2023-12-20T03:08:12;96555.42;;;-0.57;70.65
82870;BME280;72645;47.136;15.420;2023-12-20T03:10:43;96548.91;;;-0.57;70.63
82870;BME280;72645;47.136;15.420;2023-12-20T03:13:14;96543.38;;;-0.57;70.79
82870;BME280;72645;47.136;15.420;2023-12-20T03:15:45;96541.11;;;-0.56;70.54
82870;BME280;72645;47.136;15.420;2023-12-20T03:18:16;96541.42;;;-0.53;70.53
82870;BME280;72645;47.136;15.420;2023-12-20T03:20:47;96541.52;;;-0.45;70.59
82870;BME280;72645;47.136;15.420;2023-12-20T03:23:20;96537.82;;;-0.33;70.37
82870;BME280;72645;47.136;15.420;2023-12-20T03:25:51;96534.14;;;-0.26;70.26
82870;BME280;72645;47.136;15.420;2023-12-20T03:28:22;96529.93;;;-0.18;70.03
82870;BME280;72645;47.136;15.420;2023-12-20T03:30:53;96528.41;;;-0.15;70.01
82870;BME280;72645;47.136;15.420;2023-12-20T03:33:24;96524.18;;;-0.26;69.53
82870;BME280;72645;47.136;15.420;2023-12-20T03:35:55;96527.39;;;-0.41;69.56
82870;BME280;72645;47.136;15.420;2023-12-20T03:38:26;96528.02;;;-0.49;70.15
82870;BME280;72645;47.136;15.420;2023-12-20T03:40:57;96527.62;;;-0.55;70.18
82870;BME280;72645;47.136;15.420;2023-12-20T03:43:28;96526.32;;;-0.66;70.18
82870;BME280;72645;47.136;15.420;2023-12-20T03:45:59;96518.16;;;-0.77;70.59
82870;BME280;72645;47.136;15.420;2023-12-20T03:48:30;96521.23;;;-0.80;70.66
82870;BME280;72645;47.136;15.420;2023-12-20T03:51:01;96521.85;;;-0.79;71.08
82870;BME280;72645;47.136;15.420;2023-12-20T03:53:32;96515.17;;;-0.76;71.38
82870;BME280;72645;47.136;15.420;2023-12-20T03:56:03;96517.23;;;-0.77;71.04
82870;BME280;72645;47.136;15.420;2023-12-20T03:58:34;96518.53;;;-0.78;70.84
82870;BME280;72645;47.136;15.420;2023-12-20T04:01:10;96518.96;;;-0.79;71.13
82870;BME280;72645;47.136;15.420;2023-12-20T04:03:42;96522.63;;;-0.78;71.14
82870;BME280;72645;47.136;15.420;2023-12-20T04:06:18;96520.99;;;-0.76;71.05
82870;BME280;72645;47.136;15.420;2023-12-20T04:08:49;96523.28;;;-0.70;70.74
82870;BME280;72645;47.136;15.420;2023-12-20T04:11:20;96524.93;;;-0.66;70.73
82870;BME280;72645;47.136;15.420;2023-12-20T04:13:51;96526.02;;;-0.60;71.07
82870;BME280;72645;47.136;15.420;2023-12-20T04:16:22;96526.02;;;-0.60;70.91
82870;BME280;72645;47.136;15.420;2023-12-20T04:18:53;96526.45;;;-0.62;70.73
82870;BME280;72645;47.136;15.420;2023-12-20T04:21:24;96526.27;;;-0.68;70.83
82870;BME280;72645;47.136;15.420;2023-12-20T04:23:55;96519.01;;;-0.74;71.27
82870;BME280;72645;47.136;15.420;2023-12-20T04:26:26;96513.53;;;-0.81;71.10
82870;BME280;72645;47.136;15.420;2023-12-20T04:28:59;96506.09;;;-0.87;71.33
82870;BME280;72645;47.136;15.420;2023-12-20T04:31:28;96506.92;;;-0.86;71.35
82870;BME280;72645;47.136;15.420;2023-12-20T04:33:59;96504.66;;;-0.89;71.28
82870;BME280;72645;47.136;15.420;2023-12-20T04:36:30;96500.31;;;-0.98;71.45
82870;BME280;72645;47.136;15.420;2023-12-20T04:39:01;96497.73;;;-1.04;71.51
82870;BME280;72645;47.136;15.420;2023-12-20T04:41:33;96498.41;;;-1.04;71.42
82870;BME280;72645;47.136;15.420;2023-12-20T04:44:04;96491.89;;;-0.97;71.18
82870;BME280;72645;47.136;15.420;2023-12-20T04:46:35;96493.64;;;-0.91;71.29
82870;BME280;72645;47.136;15.420;2023-12-20T04:49:06;96494.74;;;-0.86;71.40
82870;BME280;72645;47.136;15.420;2023-12-20T04:51:37;96492.45;;;-0.79;71.27
82870;BME280;72645;47.136;15.420;2023-12-20T04:54:08;96493.98;;;-0.72;71.12
82870;BME280;72645;47.136;15.420;2023-12-20T04:56:40;96495.15;;;-0.65;71.47
82870;BME280;72645;47.136;15.420;2023-12-20T04:59:11;96500.56;;;-0.60;71.11
82870;BME280;72645;47.136;15.420;2023-12-20T05:01:42;96499.67;;;-0.69;70.68
82870;BME280;72645;47.136;15.420;2023-12-20T05:04:13;96502.00;;;-0.81;70.66
82870;BME280;72645;47.136;15.420;2023-12-20T05:06:44;96504.50;;;-0.89;70.92
82870;BME280;72645;47.136;15.420;2023-12-20T05:09:15;96504.20;;;-0.86;71.10
82870;BME280;72645;47.136;15.420;2023-12-20T05:11:46;96504.53;;;-0.83;71.20
82870;BME280;72645;47.136;15.420;2023-12-20T05:14:17;96503.58;;;-0.85;71.21
82870;BME280;72645;47.136;15.420;2023-12-20T05:16:46;96504.69;;;-0.89;71.17
82870;BME280;72645;47.136;15.420;2023-12-20T05:19:17;96500.73;;;-0.96;71.51
82870;BME280;72645;47.136;15.420;2023-12-20T05:21:48;96497.41;;;-0.98;71.80
82870;BME280;72645;47.136;15.420;2023-12-20T05:24:19;96491.90;;;-1.01;71.41
82870;BME280;72645;47.136;15.420;2023-12-20T05:26:51;96496.07;;;-1.02;71.51
82870;BME280;72645;47.136;15.420;2023-12-20T05:29:23;96497.60;;;-1.02;71.44
82870;BME280;72645;47.136;15.420;2023-12-20T05:31:54;96497.92;;;-1.02;71.53
82870;BME280;72645;47.136;15.420;2023-12-20T05:34:25;96486.51;;;-0.97;71.53
82870;BME280;72645;47.136;15.420;2023-12-20T05:36:57;96487.80;;;-0.92;71.62
82870;BME280;72645;47.136;15.420;2023-12-20T05:39:28;96486.85;;;-0.90;71.69
82870;BME280;72645;47.136;15.420;2023-12-20T05:42:00;96488.11;;;-0.88;71.95
82870;BME280;72645;47.136;15.420;2023-12-20T05:44:31;96496.02;;;-0.81;71.67
82870;BME280;72645;47.136;15.420;2023-12-20T05:47:00;96500.48;;;-0.75;71.70
82870;BME280;72645;47.136;15.420;2023-12-20T05:49:31;96500.36;;;-0.76;71.89
82870;BME280;72645;47.136;15.420;2023-12-20T05:52:03;96504.92;;;-0.80;71.99
82870;BME280;72645;47.136;15.420;2023-12-20T05:54:34;96508.55;;;-0.81;71.79
82870;BME280;72645;47.136;15.420;2023-12-20T05:57:05;96500.36;;;-0.79;71.98
82870;BME280;72645;47.136;15.420;2023-12-20T05:59:36;96498.94;;;-0.78;71.81
82870;BME280;72645;47.136;15.420;2023-12-20T06:02:07;96498.52;;;-0.77;72.15
82870;BME280;72645;47.136;15.420;2023-12-20T06:04:38;96504.91;;;-0.74;72.19
82870;BME280;72645;47.136;15.420;2023-12-20T06:07:14;96503.27;;;-0.72;72.20
82870;BME280;72645;47.136;15.420;2023-12-20T06:09:45;96503.91;;;-0.65;72.04
82870;BME280;72645;47.136;15.420;2023-12-20T06:12:16;96505.60;;;-0.55;71.74
82870;BME280;72645;47.136;15.420;2023-12-20T06:14:47;96511.90;;;-0.44;71.49
82870;BME280;72645;47.136;15.420;2023-12-20T06:17:18;96510.66;;;-0.33;71.54
82870;BME280;72645;47.136;15.420;2023-12-20T06:19:49;96506.58;;;-0.28;71.44
82870;BME280;72645;47.136;15.420;2023-12-20T06:22:20;96508.79;;;-0.34;71.38
82870;BME280;72645;47.136;15.420;2023-12-20T06:24:51;96512.44;;;-0.38;71.54
82870;BME280;72645;47.136;15.420;2023-12-20T06:27:22;96505.79;;;-0.32;71.70
82870;BME280;72645;47.136;15.420;2023-12-20T06:29:53;96502.67;;;-0.26;71.84
82870;BME280;72645;47.136;15.420;2023-12-20T06:32:23;96500.41;;;-0.26;71.96
82870;BME280;72645;47.136;15.420;2023-12-20T06:34:54;96500.59;;;-0.26;72.00
82870;BME280;72645;47.136;15.420;2023-12-20T06:37:26;96495.30;;;-0.23;72.09
82870;BME280;72645;47.136;15.420;2023-12-20T06:39:57;96496.38;;;-0.18;71.97
82870;BME280;72645;47.136;15.420;2023-12-20T06:42:28;96501.79;;;-0.13;71.99
82870;BME280;72645;47.136;15.420;2023-12-20T06:45:04;96505.30;;;-0.08;71.98
82870;BME280;72645;47.136;15.420;2023-12-20T06:47:35;96506.95;;;-0.04;71.91
82870;BME280;72645;47.136;15.420;2023-12-20T06:50:09;96511.36;;;0.04;71.70
82870;BME280;72645;47.136;15.420;2023-12-20T06:52:40;96513.42;;;0.13;71.76
82870;BME280;72645;47.136;15.420;2023-12-20T06:55:11;96515.78;;;0.24;71.69
82870;BME280;72645;47.136;15.420;2023-12-20T06:57:42;96515.45;;;0.32;71.72
82870;BME280;72645;47.136;15.420;2023-12-20T07:00:15;96519.38;;;0.33;71.40
82870;BME280;72645;47.136;15.420;2023-12-20T07:02:47;96515.49;;;0.38;71.38
82870;BME280;72645;47.136;15.420;2023-12-20T07:05:19;96524.17;;;0.49;71.42
82870;BME280;72645;47.136;15.420;2023-12-20T07:07:50;96530.13;;;0.47;71.40
82870;BME280;72645;47.136;15.420;2023-12-20T07:10:21;96529.33;;;0.40;71.52
82870;BME280;72645;47.136;15.420;2023-12-20T07:12:52;96530.79;;;0.41;71.68
82870;BME280;72645;47.136;15.420;2023-12-20T07:15:25;96536.30;;;0.47;71.67
82870;BME280;72645;47.136;15.420;2023-12-20T07:17:56;96545.29;;;0.56;71.71
82870;BME280;72645;47.136;15.420;2023-12-20T07:20:30;96546.38;;;0.64;71.49
82870;BME280;72645;47.136;15.420;2023-12-20T07:23:01;96547.97;;;0.72;71.57
82870;BME280;72645;47.136;15.420;2023-12-20T07:25:32;96550.33;;;0.79;71.55
82870;BME280;72645;47.136;15.420;2023-12-20T07:28:03;96557.79;;;0.84;71.60
82870;BME280;72645;47.136;15.420;2023-12-20T07:30:34;96565.69;;;0.87;71.46
82870;BME280;72645;47.136;15.420;2023-12-20T07:33:06;96567.20;;;0.88;71.55
82870;BME280;72645;47.136;15.420;2023-12-20T07:35:39;96568.11;;;0.90;71.47
82870;BME280;72645;47.136;15.420;2023-12-20T07:38:10;96566.36;;;0.93;71.79
82870;BME280;72645;47.136;15.420;2023-12-20T07:40:41;96565.41;;;0.98;71.60
82870;BME280;72645;47.136;15.420;2023-12-20T07:43:12;96569.85;;;1.08;71.45
82870;BME280;72645;47.136;15.420;2023-12-20T07:45:43;96573.86;;;1.18;71.25
82870;BME280;72645;47.136;15.420;2023-12-20T07:48:14;96575.52;;;1.31;71.17
82870;BME280;72645;47.136;15.420;2023-12-20T07:50:45;96574.73;;;1.44;71.12
82870;BME280;72645;47.136;15.420;2023-12-20T07:53:16;96581.35;;;1.49;71.14
82870;BME280;72645;47.136;15.420;2023-12-20T07:55:47;96581.20;;;1.54;70.75
82870;BME280;72645;47.136;15.420;2023-12-20T07:58:18;96595.73;;;1.51;70.76
82870;BME280;72645;47.136;15.420;2023-12-20T08:00:49;96591.83;;;1.44;70.86
82870;BME280;72645;47.136;15.420;2023-12-20T08:03:21;96602.61;;;1.48;70.70
82870;BME280;72645;47.136;15.420;2023-12-20T08:05:52;96597.02;;;1.53;70.59
82870;BME280;72645;47.136;15.420;2023-12-20T08:08:22;96589.75;;;1.56;70.61
82870;BME280;72645;47.136;15.420;2023-12-20T08:10:53;96592.21;;;1.61;70.44
82870;BME280;72645;47.136;15.420;2023-12-20T08:13:24;96595.94;;;1.65;70.35
82870;BME280;72645;47.136;15.420;2023-12-20T08:15:55;96600.17;;;1.69;70.28
82870;BME280;72645;47.136;15.420;2023-12-20T08:18:26;96598.85;;;1.74;70.15
82870;BME280;72645;47.136;15.420;2023-12-20T08:20:57;96600.21;;;1.77;70.17
82870;BME280;72645;47.136;15.420;2023-12-20T08:23:29;96606.16;;;1.81;70.18
82870;BME280;72645;47.136;15.420;2023-12-20T08:26:05;96603.42;;;1.92;69.92
82870;BME280;72645;47.136;15.420;2023-12-20T08:28:38;96602.99;;;2.04;69.71
82870;BME280;72645;47.136;15.420;2023-12-20T08:31:15;96600.02;;;2.16;69.63
82870;BME280;72645;47.136;15.420;2023-12-20T08:33:47;96596.81;;;2.28;69.35
82870;BME280;72645;47.136;15.420;2023-12-20T08:36:19;96605.11;;;2.36;69.28
82870;BME280;72645;47.136;15.420;2023-12-20T08:38:52;96602.64;;;2.43;69.20
82870;BME280;72645;47.136;15.420;2023-12-20T08:41:23;96607.36;;;2.48;69.04
82870;BME280;72645;47.136;15.420;2023-12-20T08:43:54;96607.52;;;2.56;68.81
82870;BME280;72645;47.136;15.420;2023-12-20T08:46:25;96611.02;;;2.74;72.59
82870;BME280;72645;47.136;15.420;2023-12-20T08:48:56;96612.53;;;2.88;70.31
82870;BME280;72645;47.136;15.420;2023-12-20T08:51:27;96626.27;;;2.97;72.63
82870;BME280;72645;47.136;15.420;2023-12-20T08:53:58;96623.94;;;3.25;75.04
82870;BME280;72645;47.136;15.420;2023-12-20T08:56:29;96620.05;;;3.31;70.75
82870;BME280;72645;47.136;15.420;2023-12-20T08:59:00;96619.38;;;3.39;69.55
82870;BME280;72645;47.136;15.420;2023-12-20T09:01:31;96621.88;;;3.45;68.86
82870;BME280;72645;47.136;15.420;2023-12-20T09:04:02;96621.23;;;3.52;68.59
82870;BME280;72645;47.136;15.420;2023-12-20T09:06:33;96623.70;;;3.59;68.12
82870;BME280;72645;47.136;15.420;2023-12-20T09:09:04;96624.70;;;3.65;68.26
82870;BME280;72645;47.136;15.420;2023-12-20T09:11:38;96624.94;;;3.69;67.92
82870;BME280;72645;47.136;15.420;2023-12-20T09:14:08;96616.42;;;3.70;67.25
82870;BME280;72645;47.136;15.420;2023-12-20T09:16:39;96608.61;;;3.72;66.45
82870;BME280;72645;47.136;15.420;2023-12-20T09:19:10;96600.09;;;3.75;66.81
82870;BME280;72645;47.136;15.420;2023-12-20T09:21:41;96596.77;;;3.76;66.65
82870;BME280;72645;47.136;15.420;2023-12-20T09:24:13;96604.82;;;3.77;66.62
82870;BME280;72645;47.136;15.420;2023-12-20T09:26:43;96604.48;;;3.80;66.78
82870;BME280;72645;47.136;15.420;2023-12-20T09:29:14;96608.04;;;3.83;66.43
82870;BME280;72645;47.136;15.420;2023-12-20T09:31:46;96607.73;;;3.85;66.81
82870;BME280;72645;47.136;15.420;2023-12-20T09:34:18;96604.13;;;3.87;66.56
82870;BME280;72645;47.136;15.420;2023-12-20T09:36:49;96602.90;;;3.92;65.81
82870;BME280;72645;47.136;15.420;2023-12-20T09:39:20;96609.75;;;3.98;66.19
82870;BME280;72645;47.136;15.420;2023-12-20T09:42:02;96614.80;;;4.05;66.57
82870;BME280;72645;47.136;15.420;2023-12-20T09:44:33;96613.44;;;4.13;66.84
82870;BME280;72645;47.136;15.420;2023-12-20T09:47:06;96608.47;;;4.19;67.03
82870;BME280;72645;47.136;15.420;2023-12-20T09:49:38;96599.81;;;4.31;67.01
82870;BME280;72645;47.136;15.420;2023-12-20T09:52:09;96599.16;;;4.48;67.11
82870;BME280;72645;47.136;15.420;2023-12-20T09:54:41;96600.95;;;4.66;67.05
82870;BME280;72645;47.136;15.420;2023-12-20T09:57:12;96589.25;;;4.87;66.66
82870;BME280;72645;47.136;15.420;2023-12-20T09:59:43;96586.89;;;5.04;66.08
82870;BME280;72645;47.136;15.420;2023-12-20T10:02:15;96582.01;;;5.19;65.44
82870;BME280;72645;47.136;15.420;2023-12-20T10:04:49;96583.59;;;5.39;65.24
82870;BME280;72645;47.136;15.420;2023-12-20T10:07:20;96573.30;;;5.51;65.14
82870;BME280;72645;47.136;15.420;2023-12-20T10:09:54;96571.08;;;5.60;64.76
82870;BME280;72645;47.136;15.420;2023-12-20T10:12:25;96569.98;;;5.69;64.87
82870;BME280;72645;47.136;15.420;2023-12-20T10:14:56;96571.25;;;5.75;64.57
82870;BME280;72645;47.136;15.420;2023-12-20T10:17:30;96563.01;;;5.79;64.06
82870;BME280;72645;47.136;15.420;2023-12-20T10:20:01;96567.23;;;5.83;63.77
82870;BME280;72645;47.136;15.420;2023-12-20T10:22:33;96569.63;;;5.88;63.30
82870;BME280;72645;47.136;15.420;2023-12-20T10:25:05;96568.84;;;5.94;63.13
82870;BME280;72645;47.136;15.420;2023-12-20T10:27:37;96565.44;;;6.00;62.18
82870;BME280;72645;47.136;15.420;2023-12-20T10:30:10;96567.84;;;6.02;61.28
82870;BME280;72645;47.136;15.420;2023-12-20T10:32:41;96569.61;;;6.02;60.86
82870;BME280;72645;47.136;15.420;2023-12-20T10:35:12;96570.38;;;6.03;61.12
82870;BME280;72645;47.136;15.420;2023-12-20T10:37:44;96574.45;;;6.07;61.31
82870;BME280;72645;47.136;15.420;2023-12-20T10:40:15;96573.33;;;6.10;61.22
82870;BME280;72645;47.136;15.420;2023-12-20T10:42:47;96572.44;;;6.12;61.20
82870;BME280;72645;47.136;15.420;2023-12-20T10:45:18;96570.16;;;6.15;61.11
82870;BME280;72645;47.136;15.420;2023-12-20T10:47:51;96571.73;;;6.17;60.51
82870;BME280;72645;47.136;15.420;2023-12-20T10:50:22;96564.56;;;6.17;60.82
82870;BME280;72645;47.136;15.420;2023-12-20T10:52:53;96563.95;;;6.19;61.79
82870;BME280;72645;47.136;15.420;2023-12-20T10:55:26;96559.52;;;6.31;66.26
82870;BME280;72645;47.136;15.420;2023-12-20T10:58:02;96556.51;;;6.44;63.07
82870;BME280;72645;47.136;15.420;2023-12-20T11:00:40;96554.52;;;6.52;62.58
82870;BME280;72645;47.136;15.420;2023-12-20T11:03:12;96547.17;;;6.56;62.42
82870;BME280;72645;47.136;15.420;2023-12-20T11:05:46;96547.80;;;6.59;61.89
82870;BME280;72645;47.136;15.420;2023-12-20T11:08:25;96553.69;;;6.62;61.06
82870;BME280;72645;47.136;15.420;2023-12-20T11:11:02;96549.84;;;6.64;61.13
82870;BME280;72645;47.136;15.420;2023-12-20T11:13:37;96544.05;;;6.65;60.92
82870;BME280;72645;47.136;15.420;2023-12-20T11:16:11;96543.36;;;6.69;60.56
82870;BME280;72645;47.136;15.420;2023-12-20T11:18:44;96549.69;;;6.70;60.86
82870;BME280;72645;47.136;15.420;2023-12-20T11:21:17;96555.34;;;6.69;62.06
82870;BME280;72645;47.136;15.420;2023-12-20T11:23:48;96551.45;;;6.68;61.77
82870;BME280;72645;47.136;15.420;2023-12-20T11:26:23;96551.67;;;6.67;61.57
82870;BME280;72645;47.136;15.420;2023-12-20T11:29:33;96545.75;;;6.68;61.52
82870;BME280;72645;47.136;15.420;2023-12-20T11:32:33;96538.09;;;6.68;61.36
82870;BME280;72645;47.136;15.420;2023-12-20T11:35:18;96528.48;;;6.68;60.96
82870;BME280;72645;47.136;15.420;2023-12-20T11:37:50;96532.73;;;6.69;60.67
82870;BME280;72645;47.136;15.420;2023-12-20T11:40:22;96525.08;;;6.69;60.86
82870;BME280;72645;47.136;15.420;2023-12-20T11:42:55;96526.04;;;6.70;61.11
82870;BME280;72645;47.136;15.420;2023-12-20T11:45:26;96521.48;;;6.73;61.63
82870;BME280;72645;47.136;15.420;2023-12-20T11:48:07;96521.75;;;6.78;61.26
82870;BME280;72645;47.136;15.420;2023-12-20T11:50:41;96518.21;;;6.85;60.59
82870;BME280;72645;47.136;15.420;2023-12-20T11:53:16;96513.58;;;6.93;59.84
82870;BME280;72645;47.136;15.420;2023-12-20T11:55:50;96513.36;;;7.02;59.13
82870;BME280;72645;47.136;15.420;2023-12-20T11:58:21;96507.27;;;7.10;58.68
82870;BME280;72645;47.136;15.420;2023-12-20T12:00:52;96503.57;;;7.19;58.45
82870;BME280;72645;47.136;15.420;2023-12-20T12:03:23;96499.52;;;7.25;57.86
82870;BME280;72645;47.136;15.420;2023-12-20T12:05:54;96497.99;;;7.31;57.88
82870;BME280;72645;47.136;15.420;2023-12-20T12:08:25;96497.75;;;7.36;60.07
82870;BME280;72645;47.136;15.420;2023-12-20T12:10:56;96504.06;;;7.56;64.96
82870;BME280;72645;47.136;15.420;2023-12-20T12:13:27;96498.40;;;7.85;64.59
82870;BME280;72645;47.136;15.420;2023-12-20T12:16:00;96495.91;;;8.02;59.65
82870;BME280;72645;47.136;15.420;2023-12-20T12:18:31;96491.61;;;8.07;56.91
82870;BME280;72645;47.136;15.420;2023-12-20T12:21:05;96492.46;;;8.07;56.28
82870;BME280;72645;47.136;15.420;2023-12-20T12:23:44;96485.95;;;8.06;55.94
82870;BME280;72645;47.136;15.420;2023-12-20T12:26:15;96482.58;;;8.03;55.99
82870;BME280;72645;47.136;15.420;2023-12-20T12:28:46;96486.64;;;8.00;55.98
82870;BME280;72645;47.136;15.420;2023-12-20T12:31:17;96483.55;;;7.96;56.67
82870;BME280;72645;47.136;15.420;2023-12-20T12:33:48;96474.10;;;7.90;56.82
82870;BME280;72645;47.136;15.420;2023-12-20T12:36:19;96475.88;;;7.84;55.86
82870;BME280;72645;47.136;15.420;2023-12-20T12:38:50;96484.54;;;7.79;55.86
82870;BME280;72645;47.136;15.420;2023-12-20T12:41:21;96478.11;;;7.75;55.64
82870;BME280;72645;47.136;15.420;2023-12-20T12:43:52;96474.81;;;7.68;55.41
82870;BME280;72645;47.136;15.420;2023-12-20T12:46:27;96476.94;;;7.64;55.44
82870;BME280;72645;47.136;15.420;2023-12-20T12:48:58;96475.73;;;7.60;55.59
82870;BME280;72645;47.136;15.420;2023-12-20T12:51:29;96480.46;;;7.55;56.40
82870;BME280;72645;47.136;15.420;2023-12-20T12:54:01;96480.94;;;7.52;56.87
82870;BME280;72645;47.136;15.420;2023-12-20T12:56:33;96480.16;;;7.49;57.00
82870;BME280;72645;47.136;15.420;2023-12-20T12:59:04;96481.40;;;7.47;57.34
82870;BME280;72645;47.136;15.420;2023-12-20T13:01:35;96480.86;;;7.45;57.11
82870;BME280;72645;47.136;15.420;2023-12-20T13:04:06;96479.46;;;7.45;57.11
82870;BME280;72645;47.136;15.420;2023-12-20T13:06:41;96479.17;;;7.46;57.71
82870;BME280;72645;47.136;15.420;2023-12-20T13:09:12;96471.50;;;7.48;57.94
82870;BME280;72645;47.136;15.420;2023-12-20T13:11:43;96475.40;;;7.51;58.02
82870;BME280;72645;47.136;15.420;2023-12-20T13:14:14;96470.82;;;7.58;57.17
82870;BME280;72645;47.136;15.420;2023-12-20T13:16:45;96467.86;;;7.66;57.22
82870;BME280;72645;47.136;15.420;2023-12-20T13:19:16;96467.20;;;7.75;57.38